createdAt,value
2023-05-23T00:00:38.055Z,19.79
2023-05-23T00:03:06.245Z,19.68
2023-05-23T00:05:35.088Z,19.52
2023-05-23T00:08:02.622Z,19.45
2023-05-23T00:10:30.707Z,19.39
2023-05-23T00:12:58.224Z,19.63
2023-05-23T00:15:25.898Z,19.60
2023-05-23T00:17:54.160Z,19.44
2023-05-23T00:20:21.808Z,19.49
2023-05-23T00:22:49.920Z,19.53
2023-05-23T00:25:17.754Z,19.35
2023-05-23T00:27:45.758Z,19.48
2023-05-23T00:30:13.688Z,19.30
2023-05-23T00:32:41.586Z,19.52
2023-05-23T00:35:11.532Z,19.55
2023-05-23T00:37:39.013Z,19.58
2023-05-23T00:40:08.442Z,19.33
2023-05-23T00:42:35.932Z,19.48
2023-05-23T00:45:03.678Z,19.58
2023-05-23T00:47:32.194Z,19.50
2023-05-23T00:49:59.865Z,19.22
2023-05-23T00:52:28.427Z,19.23
2023-05-23T00:55:00.526Z,19.34
2023-05-23T00:57:28.439Z,19.44
2023-05-23T00:59:56.147Z,19.24
2023-05-23T01:02:23.903Z,19.08
2023-05-23T01:04:54.616Z,19.05
2023-05-23T01:07:22.410Z,19.02
2023-05-23T01:09:50.262Z,18.89
2023-05-23T01:12:27.257Z,18.85
2023-05-23T01:14:58.333Z,18.83
2023-05-23T01:17:42.115Z,19.09
2023-05-23T01:20:12.862Z,19.11
2023-05-23T01:23:11.813Z,19.09
2023-05-23T01:26:11.983Z,19.30
2023-05-23T01:28:48.003Z,19.12
2023-05-23T01:31:17.105Z,19.16
2023-05-23T01:33:45.313Z,19.21
2023-05-23T01:36:14.984Z,19.20
2023-05-23T01:38:43.092Z,19.29
2023-05-23T01:41:10.579Z,19.22
2023-05-23T01:43:38.996Z,19.32
2023-05-23T01:46:08.081Z,19.21
2023-05-23T01:48:36.638Z,19.05
2023-05-23T01:51:05.188Z,19.13
2023-05-23T01:53:33.354Z,19.01
2023-05-23T01:56:03.487Z,18.93
2023-05-23T01:58:31.104Z,19.08
2023-05-23T02:00:58.946Z,19.04
2023-05-23T02:03:26.897Z,19.02
2023-05-23T02:05:54.673Z,19.03
2023-05-23T02:08:22.066Z,19.00
2023-05-23T02:10:49.805Z,18.87
2023-05-23T02:13:17.331Z,18.92
2023-05-23T02:15:44.723Z,19.03
2023-05-23T02:18:13.221Z,18.72
2023-05-23T02:20:42.738Z,18.63
2023-05-23T02:23:10.605Z,18.62
2023-05-23T02:25:38.576Z,18.48
2023-05-23T02:28:07.498Z,18.46
2023-05-23T02:30:34.960Z,18.48
2023-05-23T02:33:05.625Z,18.42
2023-05-23T02:35:33.955Z,18.36
2023-05-23T02:38:01.461Z,18.40
2023-05-23T02:40:28.901Z,18.47
2023-05-23T02:42:57.437Z,18.52
2023-05-23T02:45:25.022Z,18.36
2023-05-23T02:47:52.542Z,18.52
2023-05-23T02:50:20.633Z,18.40
2023-05-23T02:52:48.097Z,18.50
2023-05-23T02:55:16.064Z,18.56
2023-05-23T02:57:44.098Z,18.49
2023-05-23T03:00:12.126Z,18.48
2023-05-23T03:02:40.003Z,18.38
2023-05-23T03:05:08.193Z,18.37
2023-05-23T03:07:36.838Z,18.46
2023-05-23T03:10:04.626Z,18.59
2023-05-23T03:12:32.421Z,18.51
2023-05-23T03:15:00.050Z,18.43
2023-05-23T03:17:27.658Z,18.44
2023-05-23T03:19:57.708Z,18.58
2023-05-23T03:22:25.226Z,18.53
2023-05-23T03:24:52.748Z,18.60
2023-05-23T03:27:20.589Z,18.61
2023-05-23T03:29:48.465Z,18.43
2023-05-23T03:32:16.046Z,18.56
2023-05-23T03:34:44.234Z,18.48
2023-05-23T03:37:12.116Z,18.59
2023-05-23T03:39:39.981Z,18.61
2023-05-23T03:42:07.900Z,18.64
2023-05-23T03:44:35.500Z,18.77
2023-05-23T03:47:04.096Z,18.59
2023-05-23T03:49:31.899Z,18.46
2023-05-23T03:51:59.401Z,18.56
2023-05-23T03:54:27.224Z,18.70
2023-05-23T03:56:55.025Z,18.76
2023-05-23T03:59:22.525Z,18.64
2023-05-23T04:01:50.206Z,18.74
2023-05-23T04:04:18.517Z,18.78
2023-05-23T04:06:46.142Z,18.87
2023-05-23T04:09:15.211Z,18.91
2023-05-23T04:11:44.336Z,19.02
2023-05-23T04:14:12.610Z,19.33
2023-05-23T04:16:41.886Z,19.22
2023-05-23T04:19:10.055Z,19.32
2023-05-23T04:21:37.581Z,19.18
2023-05-23T04:24:06.181Z,19.26
2023-05-23T04:26:36.261Z,19.63
2023-05-23T04:29:06.249Z,19.76
2023-05-23T04:31:34.482Z,20.25
2023-05-23T04:34:02.678Z,20.41
2023-05-23T04:36:30.413Z,20.87
2023-05-23T04:38:58.178Z,21.33
2023-05-23T04:41:25.653Z,21.21
2023-05-23T04:43:54.703Z,21.78
2023-05-23T04:46:26.309Z,22.07
2023-05-23T04:48:55.260Z,22.20
2023-05-23T04:51:23.175Z,21.95
2023-05-23T04:53:52.589Z,22.29
2023-05-23T04:56:22.006Z,22.47
2023-05-23T04:58:50.006Z,22.73
2023-05-23T05:01:17.831Z,23.04
2023-05-23T05:03:45.541Z,23.49
2023-05-23T05:06:14.434Z,23.63
2023-05-23T05:08:42.938Z,23.56
2023-05-23T05:11:10.946Z,23.39
2023-05-23T05:13:38.789Z,24.04
2023-05-23T05:16:06.743Z,23.67
2023-05-23T05:18:36.481Z,23.87
2023-05-23T05:21:04.616Z,23.66
2023-05-23T05:23:33.356Z,23.78
2023-05-23T05:26:01.137Z,23.19
2023-05-23T05:28:29.000Z,23.29
2023-05-23T05:30:57.040Z,23.54
2023-05-23T05:33:24.997Z,23.59
2023-05-23T05:35:53.509Z,23.91
2023-05-23T05:38:20.985Z,23.99
2023-05-23T05:40:48.449Z,23.90
2023-05-23T05:43:16.805Z,23.94
2023-05-23T05:45:44.270Z,23.51
2023-05-23T05:48:12.196Z,23.43
2023-05-23T05:50:40.312Z,23.26
2023-05-23T05:53:08.719Z,23.12
2023-05-23T05:55:36.172Z,23.04
2023-05-23T05:58:04.254Z,23.41
2023-05-23T06:00:34.941Z,23.41
2023-05-23T06:03:02.775Z,22.77
2023-05-23T06:05:30.858Z,22.52
2023-05-23T06:07:58.306Z,23.18
2023-05-23T06:10:26.246Z,23.62
2023-05-23T06:12:54.102Z,23.92
2023-05-23T06:15:21.560Z,23.76
2023-05-23T06:17:49.279Z,24.08
2023-05-23T06:20:16.741Z,24.14
2023-05-23T06:22:44.948Z,23.84
2023-05-23T06:25:16.332Z,24.16
2023-05-23T06:27:44.937Z,24.28
2023-05-23T06:30:13.132Z,24.50
2023-05-23T06:32:41.388Z,24.69
2023-05-23T06:35:09.513Z,24.92
2023-05-23T06:37:37.227Z,24.71
2023-05-23T06:40:05.619Z,24.77
2023-05-23T06:42:33.172Z,24.62
2023-05-23T06:45:03.231Z,24.67
2023-05-23T06:47:32.535Z,24.50
2023-05-23T06:49:59.998Z,24.89
2023-05-23T06:52:27.724Z,24.78
2023-05-23T06:54:55.616Z,24.57
2023-05-23T06:57:23.964Z,25.05
2023-05-23T06:59:51.979Z,25.27
2023-05-23T07:02:19.422Z,25.14
2023-05-23T07:04:46.980Z,25.43
2023-05-23T07:07:15.720Z,24.91
2023-05-23T07:09:44.328Z,25.43
2023-05-23T07:12:12.207Z,26.07
2023-05-23T07:14:40.665Z,26.03
2023-05-23T07:17:08.198Z,25.61
2023-05-23T07:19:35.786Z,26.20
2023-05-23T07:22:03.640Z,26.53
2023-05-23T07:24:31.670Z,26.30
2023-05-23T07:26:59.308Z,25.65
2023-05-23T07:29:27.168Z,25.24
2023-05-23T07:31:54.863Z,25.64
2023-05-23T07:34:22.728Z,26.02
2023-05-23T07:36:51.028Z,25.14
2023-05-23T07:39:24.394Z,25.76
2023-05-23T07:41:52.578Z,25.99
2023-05-23T07:44:22.444Z,26.35
2023-05-23T07:46:53.030Z,25.66
2023-05-23T07:49:21.040Z,26.04
2023-05-23T07:51:48.473Z,26.37
2023-05-23T07:54:16.758Z,26.63
2023-05-23T07:56:45.219Z,26.11
2023-05-23T07:59:13.570Z,26.49
2023-05-23T08:01:42.416Z,26.41
2023-05-23T08:04:11.162Z,26.65
2023-05-23T08:06:45.636Z,26.55
2023-05-23T08:09:20.674Z,26.97
2023-05-23T08:11:49.092Z,26.85
2023-05-23T08:14:16.575Z,27.11
2023-05-23T08:16:44.802Z,26.65
2023-05-23T08:19:12.823Z,26.82
2023-05-23T08:21:40.519Z,26.71
2023-05-23T08:24:08.236Z,26.94
2023-05-23T08:26:36.539Z,27.15
2023-05-23T08:29:04.120Z,27.41
2023-05-23T08:31:32.283Z,27.13
2023-05-23T08:34:00.511Z,27.04
2023-05-23T08:36:29.529Z,27.52
2023-05-23T08:38:57.302Z,27.25
2023-05-23T08:41:25.412Z,27.73
2023-05-23T08:43:53.044Z,27.70
2023-05-23T08:46:22.892Z,27.61
2023-05-23T08:48:55.004Z,28.05
2023-05-23T08:51:25.883Z,27.85
2023-05-23T08:53:54.039Z,28.10
2023-05-23T08:56:24.769Z,27.62
2023-05-23T08:58:53.278Z,27.75
2023-05-23T09:01:23.097Z,27.75
2023-05-23T09:03:51.506Z,27.95
2023-05-23T09:06:21.871Z,27.88
2023-05-23T09:08:49.551Z,28.54
2023-05-23T09:11:17.528Z,28.59
2023-05-23T09:13:45.916Z,28.36
2023-05-23T09:16:17.922Z,28.21
2023-05-23T09:18:46.197Z,28.14
2023-05-23T09:21:14.218Z,28.19
2023-05-23T09:23:43.799Z,28.20
2023-05-23T09:26:13.428Z,28.61
2023-05-23T09:28:43.450Z,29.33
2023-05-23T09:31:11.230Z,28.62
2023-05-23T09:33:52.692Z,29.07
2023-05-23T09:36:20.474Z,28.95
2023-05-23T09:38:49.038Z,28.40
2023-05-23T09:41:16.606Z,28.98
2023-05-23T09:43:55.024Z,28.80
2023-05-23T09:46:22.971Z,28.87
2023-05-23T09:48:51.742Z,28.96
2023-05-23T09:51:23.299Z,28.80
2023-05-23T09:53:52.360Z,28.59
2023-05-23T09:56:20.201Z,28.78
2023-05-23T09:58:49.062Z,28.99
2023-05-23T10:01:17.164Z,28.61
2023-05-23T10:03:51.824Z,28.92
2023-05-23T10:06:31.558Z,28.90
2023-05-23T10:09:04.762Z,28.83
2023-05-23T10:11:35.116Z,28.72
2023-05-23T10:14:05.698Z,29.25
2023-05-23T10:16:56.630Z,29.38
2023-05-23T10:19:26.962Z,29.79
2023-05-23T10:21:59.669Z,29.59
2023-05-23T10:24:27.983Z,29.75
2023-05-23T10:26:55.946Z,29.46
2023-05-23T10:29:23.715Z,28.61
2023-05-23T10:31:52.956Z,28.55
2023-05-23T10:34:25.895Z,28.90
2023-05-23T10:36:57.414Z,28.95
2023-05-23T10:39:41.836Z,29.10
2023-05-23T10:42:17.904Z,29.18
2023-05-23T10:44:45.420Z,29.53
2023-05-23T10:47:13.317Z,28.95
2023-05-23T10:49:45.424Z,28.78
2023-05-23T10:52:15.220Z,28.51
2023-05-23T10:54:51.628Z,29.17
2023-05-23T10:57:21.320Z,29.18
2023-05-23T10:59:55.156Z,29.04
2023-05-23T11:02:29.356Z,29.28
2023-05-23T11:05:15.725Z,29.43
2023-05-23T11:07:43.406Z,29.57
2023-05-23T11:10:12.096Z,29.40
2023-05-23T11:12:44.434Z,28.99
2023-05-23T11:15:18.409Z,29.67
2023-05-23T11:17:57.557Z,29.59
2023-05-23T11:20:27.614Z,30.09
2023-05-23T11:23:00.444Z,30.35
2023-05-23T11:25:50.060Z,29.94
2023-05-23T11:28:19.592Z,29.78
2023-05-23T11:30:51.180Z,30.13
2023-05-23T11:33:18.994Z,30.41
2023-05-23T11:35:47.893Z,30.42
2023-05-23T11:38:18.532Z,30.29
2023-05-23T11:40:46.837Z,29.93
2023-05-23T11:43:16.751Z,30.12
2023-05-23T11:45:46.991Z,30.20
2023-05-23T11:48:16.827Z,29.97
2023-05-23T11:50:53.103Z,29.66
2023-05-23T11:53:23.074Z,30.09
2023-05-23T11:55:55.003Z,30.47
2023-05-23T11:58:26.464Z,29.28
2023-05-23T12:00:59.479Z,29.56
2023-05-23T12:03:27.522Z,29.12
2023-05-23T12:05:56.388Z,29.56
2023-05-23T12:08:25.273Z,30.05
2023-05-23T12:10:57.312Z,29.99
2023-05-23T12:13:26.234Z,30.28
2023-05-23T12:15:56.172Z,30.41
2023-05-23T12:18:24.277Z,30.23
2023-05-23T12:20:52.203Z,30.35
2023-05-23T12:23:23.479Z,30.22
2023-05-23T12:25:52.394Z,30.62
2023-05-23T12:28:21.143Z,30.24
2023-05-23T12:30:49.534Z,30.36
2023-05-23T12:33:18.745Z,30.75
2023-05-23T12:35:46.774Z,30.71
2023-05-23T12:38:17.611Z,30.90
2023-05-23T12:40:45.104Z,30.62
2023-05-23T12:43:15.586Z,30.66
2023-05-23T12:45:43.524Z,30.49
2023-05-23T12:48:11.414Z,30.29
2023-05-23T12:50:39.275Z,30.57
2023-05-23T12:53:06.714Z,30.42
2023-05-23T12:55:34.113Z,30.52
2023-05-23T12:58:01.835Z,30.58
2023-05-23T13:00:29.317Z,30.79
2023-05-23T13:02:57.177Z,30.57
2023-05-23T13:05:25.059Z,30.36
2023-05-23T13:07:52.519Z,30.65
2023-05-23T13:10:20.257Z,30.66
2023-05-23T13:12:47.987Z,30.72
2023-05-23T13:15:15.692Z,30.53
2023-05-23T13:17:47.845Z,30.15
2023-05-23T13:20:17.811Z,29.46
2023-05-23T13:22:45.360Z,29.63
2023-05-23T13:25:12.837Z,30.07
2023-05-23T13:27:40.639Z,30.33
2023-05-23T13:30:08.678Z,30.30
2023-05-23T13:32:36.150Z,30.27
2023-05-23T13:35:04.056Z,30.39
2023-05-23T13:37:31.543Z,30.43
2023-05-23T13:39:58.943Z,30.63
2023-05-23T13:42:26.994Z,30.61
2023-05-23T13:44:54.414Z,30.44
2023-05-23T13:47:21.950Z,30.74
2023-05-23T13:49:50.283Z,30.70
2023-05-23T13:52:17.720Z,30.06
2023-05-23T13:54:46.256Z,29.96
2023-05-23T13:57:13.985Z,30.18
2023-05-23T13:59:41.402Z,30.30
2023-05-23T14:02:09.008Z,30.73
2023-05-23T14:04:37.280Z,30.42
2023-05-23T14:07:04.765Z,30.20
2023-05-23T14:09:32.260Z,30.10
2023-05-23T14:12:00.049Z,30.03
2023-05-23T14:14:27.486Z,30.28
2023-05-23T14:16:55.005Z,30.05
2023-05-23T14:19:22.788Z,30.17
2023-05-23T14:21:50.783Z,30.23
2023-05-23T14:24:18.609Z,30.10
2023-05-23T14:26:47.151Z,29.92
2023-05-23T14:29:14.600Z,29.65
2023-05-23T14:31:42.657Z,29.83
2023-05-23T14:34:11.432Z,29.88
2023-05-23T14:36:39.093Z,29.94
2023-05-23T14:39:09.108Z,30.05
2023-05-23T14:41:38.753Z,30.01
2023-05-23T14:44:06.291Z,30.02
2023-05-23T14:46:33.869Z,29.86
2023-05-23T14:49:01.609Z,30.02
2023-05-23T14:51:44.879Z,29.76
2023-05-23T14:54:16.597Z,29.54
2023-05-23T14:56:44.312Z,29.37
2023-05-23T14:59:11.762Z,29.73
2023-05-23T15:01:40.647Z,29.29
2023-05-23T15:04:12.115Z,29.13
2023-05-23T15:06:41.682Z,29.46
2023-05-23T15:09:10.668Z,29.24
2023-05-23T15:11:38.917Z,29.56
2023-05-23T15:14:08.065Z,29.56
2023-05-23T15:16:37.118Z,29.39
2023-05-23T15:19:05.940Z,29.32
2023-05-23T15:21:33.706Z,29.58
2023-05-23T15:24:01.360Z,29.61
2023-05-23T15:26:29.027Z,29.48
2023-05-23T15:28:58.080Z,29.29
2023-05-23T15:31:26.212Z,29.29
2023-05-23T15:33:53.785Z,29.35
2023-05-23T15:36:21.458Z,29.08
2023-05-23T15:38:48.920Z,29.02
2023-05-23T15:41:16.956Z,29.13
2023-05-23T15:43:44.659Z,28.95
2023-05-23T15:46:12.224Z,28.92
2023-05-23T15:48:41.930Z,28.68
2023-05-23T15:51:09.678Z,28.75
2023-05-23T15:53:43.295Z,28.85
2023-05-23T15:56:24.822Z,28.81
2023-05-23T15:58:52.281Z,28.59
2023-05-23T16:01:20.644Z,28.67
2023-05-23T16:03:48.753Z,28.55
2023-05-23T16:06:16.315Z,28.34
2023-05-23T16:08:43.856Z,28.44
2023-05-23T16:11:11.574Z,28.38
2023-05-23T16:13:39.186Z,28.03
2023-05-23T16:16:06.864Z,27.87
2023-05-23T16:18:34.625Z,27.93
2023-05-23T16:21:02.067Z,27.66
2023-05-23T16:23:29.564Z,27.60
2023-05-23T16:25:57.395Z,27.78
2023-05-23T16:28:27.129Z,27.80
2023-05-23T16:30:55.733Z,27.75
2023-05-23T16:33:23.489Z,27.51
2023-05-23T16:35:50.991Z,27.54
2023-05-23T16:38:18.508Z,27.38
2023-05-23T16:40:46.254Z,27.31
2023-05-23T16:43:13.682Z,27.28
2023-05-23T16:45:42.122Z,27.29
2023-05-23T16:48:10.073Z,27.27
2023-05-23T16:50:37.488Z,27.37
2023-05-23T16:53:04.877Z,27.04
2023-05-23T16:55:32.624Z,27.04
2023-05-23T16:58:00.065Z,27.04
2023-05-23T17:00:27.556Z,27.05
2023-05-23T17:02:55.344Z,27.04
2023-05-23T17:05:22.855Z,26.88
2023-05-23T17:07:50.373Z,26.76
2023-05-23T17:10:20.208Z,26.78
2023-05-23T17:12:47.986Z,26.66
2023-05-23T17:15:16.793Z,26.57
2023-05-23T17:17:44.555Z,26.46
2023-05-23T17:20:11.986Z,26.39
2023-05-23T17:22:39.427Z,24.85
2023-05-23T17:25:07.483Z,24.16
2023-05-23T17:27:34.949Z,23.82
2023-05-23T17:30:05.071Z,22.77
2023-05-23T17:32:33.002Z,22.29
2023-05-23T17:35:00.544Z,22.32
2023-05-23T17:37:27.992Z,22.04
2023-05-23T17:39:57.642Z,21.62
2023-05-23T17:42:25.461Z,21.36
2023-05-23T17:44:55.188Z,21.24
2023-05-23T17:47:22.947Z,20.65
2023-05-23T17:49:50.586Z,20.86
2023-05-23T17:52:18.026Z,21.10
2023-05-23T17:54:45.860Z,21.11
2023-05-23T17:57:13.948Z,20.86
2023-05-23T17:59:41.525Z,20.62
2023-05-23T18:02:10.715Z,20.59
2023-05-23T18:04:38.559Z,20.02
2023-05-23T18:07:06.046Z,20.23
2023-05-23T18:09:33.463Z,20.50
2023-05-23T18:12:01.356Z,19.90
2023-05-23T18:14:28.799Z,19.90
2023-05-23T18:16:56.312Z,20.02
2023-05-23T18:19:24.128Z,19.28
2023-05-23T18:21:51.572Z,19.74
2023-05-23T18:24:19.076Z,19.73
2023-05-23T18:26:47.849Z,18.86
2023-05-23T18:29:15.691Z,19.44
2023-05-23T18:31:44.807Z,19.40
2023-05-23T18:34:13.951Z,19.03
2023-05-23T18:36:41.423Z,19.10
2023-05-23T18:39:10.017Z,19.12
2023-05-23T18:41:38.923Z,19.02
2023-05-23T18:44:06.467Z,18.91
2023-05-23T18:46:34.354Z,18.32
2023-05-23T18:49:02.323Z,18.63
2023-05-23T18:51:29.793Z,18.61
2023-05-23T18:54:04.385Z,18.79
2023-05-23T18:56:33.167Z,18.61
2023-05-23T18:59:00.558Z,18.97
2023-05-23T19:01:28.090Z,19.11
2023-05-23T19:03:57.875Z,19.28
2023-05-23T19:06:26.794Z,19.08
2023-05-23T19:08:54.356Z,19.35
2023-05-23T19:11:22.660Z,19.33
2023-05-23T19:13:50.290Z,19.49
2023-05-23T19:16:17.767Z,19.18
2023-05-23T19:18:45.782Z,19.09
2023-05-23T19:21:13.474Z,19.37
2023-05-23T19:23:40.969Z,19.98
2023-05-23T19:26:10.276Z,19.77
2023-05-23T19:28:37.768Z,19.97
2023-05-23T19:31:05.485Z,19.71
2023-05-23T19:33:33.300Z,19.71
2023-05-23T19:36:00.988Z,19.82
2023-05-23T19:38:28.373Z,20.49
2023-05-23T19:40:56.094Z,20.72
2023-05-23T19:43:23.634Z,20.99
2023-05-23T19:45:51.375Z,20.85
2023-05-23T19:48:19.090Z,21.25
2023-05-23T19:50:47.600Z,21.06
2023-05-23T19:53:15.135Z,21.16
2023-05-23T19:55:42.827Z,21.03
2023-05-23T19:58:10.445Z,20.69
2023-05-23T20:00:38.103Z,20.08
2023-05-23T20:03:06.887Z,20.44
2023-05-23T20:05:34.421Z,20.66
2023-05-23T20:08:02.020Z,20.03
2023-05-23T20:10:29.716Z,20.31
2023-05-23T20:12:57.221Z,20.11
2023-05-23T20:15:38.689Z,20.35
2023-05-23T20:18:08.310Z,20.40
2023-05-23T20:20:36.078Z,20.22
2023-05-23T20:23:03.844Z,20.73
2023-05-23T20:25:31.568Z,20.55
2023-05-23T20:27:59.055Z,20.97
2023-05-23T20:30:26.656Z,21.04
2023-05-23T20:32:54.607Z,21.01
2023-05-23T20:35:22.916Z,20.78
2023-05-23T20:37:57.074Z,21.09
2023-05-23T20:40:25.851Z,21.21
2023-05-23T20:42:53.511Z,21.23
2023-05-23T20:45:21.770Z,21.44
2023-05-23T20:47:49.604Z,21.30
2023-05-23T20:50:19.170Z,20.88
2023-05-23T20:52:46.615Z,20.89
2023-05-23T20:55:14.946Z,21.25
2023-05-23T20:57:42.697Z,21.56
2023-05-23T21:00:13.701Z,21.28
2023-05-23T21:02:42.380Z,21.60
2023-05-23T21:05:10.977Z,21.42
2023-05-23T21:07:38.762Z,21.51
2023-05-23T21:10:06.834Z,21.49
2023-05-23T21:12:34.300Z,21.52
2023-05-23T21:15:01.869Z,21.43
2023-05-23T21:17:29.800Z,21.48
2023-05-23T21:19:57.281Z,21.50
2023-05-23T21:22:24.740Z,21.34
2023-05-23T21:24:52.466Z,21.27
2023-05-23T21:27:19.946Z,21.20
2023-05-23T21:29:47.533Z,21.19
2023-05-23T21:32:15.299Z,21.40
2023-05-23T21:34:42.687Z,20.72
2023-05-23T21:37:10.165Z,20.72
2023-05-23T21:39:50.649Z,20.76
2023-05-23T21:42:19.746Z,20.78
2023-05-23T21:44:47.472Z,20.94
2023-05-23T21:47:14.971Z,20.90
2023-05-23T21:49:42.710Z,20.91
2023-05-23T21:52:10.372Z,20.62
2023-05-23T21:54:37.833Z,20.37
2023-05-23T21:57:05.290Z,20.36
2023-05-23T21:59:32.958Z,20.13
2023-05-23T22:02:01.024Z,20.31
2023-05-23T22:04:28.899Z,20.57
2023-05-23T22:06:56.587Z,20.75
2023-05-23T22:09:24.090Z,20.89
2023-05-23T22:11:52.056Z,21.04
2023-05-23T22:14:19.524Z,21.01
2023-05-23T22:16:47.139Z,20.84
2023-05-23T22:19:18.084Z,20.68
2023-05-23T22:21:45.723Z,20.59
2023-05-23T22:24:13.225Z,20.64
2023-05-23T22:26:41.155Z,20.60
2023-05-23T22:29:08.561Z,20.67
2023-05-23T22:31:36.095Z,20.70
2023-05-23T22:34:03.978Z,20.69
2023-05-23T22:36:33.470Z,20.52
2023-05-23T22:39:02.444Z,20.20
2023-05-23T22:41:30.121Z,20.21
2023-05-23T22:43:57.587Z,20.28
2023-05-23T22:46:25.033Z,20.31
2023-05-23T22:48:55.134Z,20.17
2023-05-23T22:51:22.625Z,20.23
2023-05-23T22:53:50.171Z,20.29
2023-05-23T22:56:17.900Z,20.26
2023-05-23T22:58:45.282Z,20.26
2023-05-23T23:01:12.771Z,20.20
2023-05-23T23:03:40.776Z,20.14
2023-05-23T23:06:09.466Z,20.29
2023-05-23T23:08:37.765Z,20.02
2023-05-23T23:11:05.479Z,19.94
2023-05-23T23:13:34.079Z,20.12
2023-05-23T23:16:01.502Z,20.12
2023-05-23T23:18:29.443Z,20.15
2023-05-23T23:20:56.826Z,19.82
2023-05-23T23:23:24.256Z,19.87
2023-05-23T23:25:52.257Z,19.46
2023-05-23T23:28:20.824Z,19.65
2023-05-23T23:30:48.356Z,19.66
2023-05-23T23:33:18.162Z,19.77
2023-05-23T23:35:48.596Z,19.16
2023-05-23T23:38:16.547Z,19.02
2023-05-23T23:40:45.669Z,19.14
2023-05-23T23:43:13.594Z,18.48
2023-05-23T23:45:41.278Z,18.35
2023-05-23T23:48:08.781Z,18.61
2023-05-23T23:50:36.285Z,18.50
2023-05-23T23:53:04.609Z,18.46
2023-05-23T23:55:32.071Z,18.72
2023-05-23T23:57:59.522Z,18.84
